Time;durP1;ratioP1;P1;durP2;ratioP2;P2;SDS_P1;SDS_P2;PMS_P1;PMS_P2;Temp;Humidity;BMP_temperature;BMP_pressure;BME280_temperature;BME280_humidity;BME280_pressure;Samples;Min_cycle;Max_cycle;Signal;HPM_P1;HPM_P2
2022/09/24 00:00:51;;;;;;;9.30;7.70;;;12.50;99.90;;;;;;5042279;28;20442;-80
2022/09/24 00:03:36;;;;;;;7.23;6.53;;;12.60;99.90;;;;;;5028274;28;20430;-80
2022/09/24 00:06:21;;;;;;;8.90;7.77;;;12.60;99.90;;;;;;5041343;28;20410;-80
2022/09/24 00:09:05;;;;;;;7.90;6.60;;;12.60;99.90;;;;;;5041991;28;20391;-80
2022/09/24 00:11:52;;;;;;;9.07;7.83;;;12.70;99.90;;;;;;5041868;28;20436;-80
2022/09/24 00:14:36;;;;;;;9.27;6.50;;;12.70;99.90;;;;;;5041225;28;20442;-79
2022/09/24 00:17:21;;;;;;;10.90;7.40;;;12.60;99.90;;;;;;5042194;28;20766;-80
2022/09/24 00:20:06;;;;;;;11.73;6.90;;;12.60;99.90;;;;;;5041098;28;20386;-80
2022/09/24 00:22:50;;;;;;;7.40;6.67;;;12.60;99.90;;;;;;5042265;28;20465;-80
2022/09/24 00:28:43;;;;;;;6.03;5.50;;;12.30;99.90;;;;;;5041766;28;20391;-80
2022/09/24 00:31:28;;;;;;;9.17;5.80;;;11.90;99.90;;;;;;5040561;28;20903;-80
2022/09/24 00:34:13;;;;;;;5.10;4.70;;;11.40;99.90;;;;;;5041908;28;20475;-80
2022/09/24 00:36:58;;;;;;;7.10;4.73;;;11.30;99.90;;;;;;5042622;28;20437;-80
2022/09/24 00:39:44;;;;;;;5.70;5.27;;;10.90;99.90;;;;;;5041530;28;20442;-80
2022/09/24 00:42:31;;;;;;;8.73;6.07;;;11.00;99.90;;;;;;5042258;28;20379;-80
2022/09/24 00:45:16;;;;;;;8.27;5.30;;;11.00;99.90;;;;;;5041133;28;20379;-80
2022/09/24 00:48:00;;;;;;;5.77;4.70;;;11.00;99.90;;;;;;5047040;28;20371;-78
2022/09/24 00:50:46;;;;;;;7.33;4.47;;;10.90;99.90;;;;;;5048115;28;20387;-78
2022/09/24 00:53:32;;;;;;;6.33;4.73;;;11.00;99.90;;;;;;5043505;28;20884;-80
2022/09/24 00:56:18;;;;;;;8.73;5.13;;;10.90;99.90;;;;;;5040596;28;20454;-80
2022/09/24 00:59:05;;;;;;;4.90;4.50;;;11.00;99.90;;;;;;5040528;28;20383;-80
2022/09/24 01:01:52;;;;;;;9.33;5.20;;;10.80;99.90;;;;;;5041078;28;20465;-80
2022/09/24 01:04:37;;;;;;;10.17;5.37;;;10.80;99.90;;;;;;5041190;28;20474;-80
2022/09/24 01:07:21;;;;;;;4.87;4.37;;;10.90;99.90;;;;;;5041498;28;20868;-80
2022/09/24 01:10:06;;;;;;;6.17;4.87;;;10.80;99.90;;;;;;5039528;28;20379;-80
2022/09/24 01:13:02;;;;;;;5.87;5.37;;;10.70;99.90;;;;;;5040261;28;20382;-79
2022/09/24 01:15:58;;;;;;;11.53;5.97;;;10.80;99.90;;;;;;5025323;28;20510;-80
2022/09/24 01:18:49;;;;;;;5.70;4.90;;;10.90;99.90;;;;;;5040409;28;20771;-80
2022/09/24 01:21:44;;;;;;;5.80;5.20;;;10.80;99.90;;;;;;5040378;28;20488;-81
2022/09/24 01:24:46;;;;;;;5.87;5.20;;;10.90;99.90;;;;;;5039574;28;20395;-81
2022/09/24 01:28:02;;;;;;;9.30;6.17;;;10.80;99.90;;;;;;5040781;28;20447;-81
2022/09/24 01:30:49;;;;;;;6.67;5.37;;;10.90;99.90;;;;;;5040709;28;20450;-81
2022/09/24 01:33:36;;;;;;;6.60;5.13;;;10.90;99.90;;;;;;5039903;28;20410;-80
2022/09/24 01:36:22;;;;;;;7.47;5.87;;;11.00;99.90;;;;;;5040301;28;20426;-81
2022/09/24 01:39:08;;;;;;;7.90;6.87;;;11.10;99.90;;;;;;5025424;28;20408;-80
2022/09/24 01:41:53;;;;;;;6.73;5.93;;;11.10;99.90;;;;;;5039739;28;20439;-80
2022/09/24 01:44:41;;;;;;;9.30;7.40;;;11.10;99.90;;;;;;5040010;28;20383;-81
2022/09/24 01:47:34;;;;;;;6.43;5.30;;;11.00;99.90;;;;;;5040397;28;20410;-81
2022/09/24 01:50:19;;;;;;;7.13;6.53;;;10.90;99.90;;;;;;5039740;28;20415;-80
2022/09/24 01:53:12;;;;;;;5.50;5.00;;;11.00;99.90;;;;;;5039200;28;20387;-80
2022/09/24 01:56:04;;;;;;;7.20;5.23;;;11.00;99.90;;;;;;5040141;28;20920;-81
2022/09/24 01:58:54;;;;;;;8.60;6.17;;;11.00;99.90;;;;;;5039512;28;20938;-80
2022/09/24 02:01:47;;;;;;;9.80;7.63;;;11.00;99.90;;;;;;5039180;28;20521;-81
2022/09/24 02:04:37;;;;;;;7.53;6.10;;;10.90;99.90;;;;;;5039788;28;20384;-80
2022/09/24 02:07:38;;;;;;;7.87;5.17;;;10.80;99.90;;;;;;5025239;28;20449;-80
2022/09/24 02:10:24;;;;;;;7.13;5.27;;;10.90;99.90;;;;;;5040004;28;20406;-80
2022/09/24 02:13:12;;;;;;;9.60;5.30;;;10.80;99.90;;;;;;5038897;28;20386;-80
2022/09/24 02:16:01;;;;;;;6.10;5.60;;;10.70;99.90;;;;;;5039730;28;20533;-80
2022/09/24 02:18:50;;;;;;;7.70;6.77;;;10.60;99.90;;;;;;5039914;28;20797;-80
2022/09/24 02:21:37;;;;;;;6.57;5.90;;;10.70;99.90;;;;;;5039819;28;20517;-79
2022/09/24 02:24:31;;;;;;;12.53;6.73;;;10.50;99.90;;;;;;5040318;28;20383;-79
2022/09/24 02:27:17;;;;;;;7.00;6.30;;;10.60;99.90;;;;;;5038703;28;20463;-80
2022/09/24 02:30:01;;;;;;;5.90;5.30;;;10.60;99.90;;;;;;5039831;28;20386;-79
2022/09/24 02:32:46;;;;;;;7.77;6.17;;;10.60;99.90;;;;;;5039341;28;20534;-79
2022/09/24 02:35:31;;;;;;;7.70;6.10;;;10.50;99.90;;;;;;5038451;28;20534;-80
2022/09/24 02:38:17;;;;;;;6.90;6.20;;;10.50;99.90;;;;;;5043005;28;20415;-79
2022/09/24 02:41:01;;;;;;;8.70;6.83;;;10.60;99.90;;;;;;5030310;28;20437;-80
2022/09/24 02:43:46;;;;;;;9.00;6.60;;;10.60;99.90;;;;;;5045733;28;20880;-79
2022/09/24 02:46:30;;;;;;;8.20;6.90;;;10.70;99.90;;;;;;5046748;28;20509;-79
2022/09/24 02:49:16;;;;;;;7.87;7.07;;;11.00;99.90;;;;;;5031251;28;20756;-79
2022/09/24 02:52:01;;;;;;;7.43;6.27;;;11.20;99.90;;;;;;5046536;28;20390;-79
2022/09/24 02:54:46;;;;;;;9.50;6.80;;;11.30;99.90;;;;;;5046788;28;20398;-80
2022/09/24 02:57:31;;;;;;;7.60;6.80;;;11.40;99.90;;;;;;5044881;28;20418;-81
2022/09/24 03:00:19;;;;;;;7.23;6.53;;;11.50;99.90;;;;;;5044587;28;20437;-80
2022/09/24 03:03:04;;;;;;;7.40;5.57;;;11.50;99.90;;;;;;5045982;28;20942;-81
2022/09/24 03:05:51;;;;;;;11.40;6.73;;;11.50;99.90;;;;;;5045241;28;20437;-80
2022/09/24 03:08:35;;;;;;;6.97;6.30;;;11.60;99.90;;;;;;5045195;28;20387;-81
2022/09/24 03:11:21;;;;;;;13.00;6.80;;;11.60;99.90;;;;;;5044975;28;20440;-80
2022/09/24 03:14:05;;;;;;;6.50;5.90;;;11.50;99.90;;;;;;5046020;28;20793;-80
2022/09/24 03:16:50;;;;;;;6.10;5.03;;;11.50;99.90;;;;;;5046144;28;20443;-79
2022/09/24 03:19:34;;;;;;;5.17;4.70;;;11.60;99.90;;;;;;5046432;28;20386;-80
2022/09/24 03:22:19;;;;;;;7.37;5.50;;;11.50;99.90;;;;;;5035866;28;20493;-78
2022/09/24 03:25:04;;;;;;;7.23;5.77;;;11.40;99.90;;;;;;5052119;28;20449;-79
2022/09/24 03:27:49;;;;;;;8.30;5.77;;;11.40;99.90;;;;;;5051965;28;20398;-78
2022/09/24 03:33:42;;;;;;;6.67;6.07;;;11.30;99.90;;;;;;5045319;28;20427;-80
2022/09/24 03:36:26;;;;;;;6.17;5.57;;;11.20;99.90;;;;;;5045260;28;20795;-80
2022/09/24 03:39:11;;;;;;;11.97;5.60;;;11.20;99.90;;;;;;5045288;28;20434;-80
2022/09/24 03:41:55;;;;;;;6.40;5.60;;;11.30;99.90;;;;;;5044529;28;20978;-80
2022/09/24 03:44:41;;;;;;;8.80;6.73;;;11.40;99.90;;;;;;5044238;28;20398;-79
2022/09/24 03:47:26;;;;;;;7.23;6.27;;;11.40;99.90;;;;;;5058686;28;20435;-80
2022/09/24 03:50:11;;;;;;;5.60;5.10;;;11.40;99.90;;;;;;5047781;28;20394;-80
2022/09/24 03:52:56;;;;;;;7.30;5.50;;;11.50;99.90;;;;;;5033688;28;20437;-80
2022/09/24 03:55:43;;;;;;;6.70;6.00;;;11.40;99.90;;;;;;5049691;28;20432;-80
2022/09/24 03:58:28;;;;;;;8.73;5.30;;;11.40;99.90;;;;;;5061458;28;20429;-79
2022/09/24 04:01:14;;;;;;;8.30;6.90;;;11.40;99.90;;;;;;5060506;28;20551;-79
2022/09/24 04:04:00;;;;;;;8.57;6.90;;;11.40;99.90;;;;;;5061982;28;20390;-79
2022/09/24 04:06:45;;;;;;;6.13;5.53;;;11.40;99.90;;;;;;5068312;28;20397;-77
2022/09/24 04:09:30;;;;;;;8.13;7.10;;;11.40;99.90;;;;;;5054308;28;20405;-78
2022/09/24 04:12:14;;;;;;;6.27;5.77;;;11.40;99.90;;;;;;5068949;28;20397;-77
2022/09/24 04:15:01;;;;;;;11.33;7.27;;;11.40;99.90;;;;;;5068893;28;20394;-77
2022/09/24 04:17:56;;;;;;;7.93;7.33;;;11.30;99.90;;;;;;5069671;28;20406;-78
2022/09/24 04:20:41;;;;;;;10.40;6.90;;;11.30;99.90;;;;;;5069619;28;20465;-78
2022/09/24 04:23:26;;;;;;;6.63;6.03;;;11.20;99.90;;;;;;5069996;28;20409;-77
2022/09/24 04:26:11;;;;;;;9.10;7.77;;;11.30;99.90;;;;;;5066136;28;20454;-80
2022/09/24 04:28:58;;;;;;;7.57;6.80;;;11.30;99.90;;;;;;5065465;28;20406;-79
2022/09/24 04:31:42;;;;;;;8.93;6.80;;;11.30;99.90;;;;;;5067310;28;20410;-83
2022/09/24 04:34:27;;;;;;;8.43;6.17;;;11.20;99.90;;;;;;5066910;28;20390;-79
2022/09/24 04:37:11;;;;;;;8.20;6.23;;;11.10;99.90;;;;;;5064585;28;20413;-80
2022/09/24 04:39:56;;;;;;;12.50;6.17;;;10.90;99.90;;;;;;5066839;28;20394;-79
2022/09/24 04:42:43;;;;;;;8.77;6.53;;;10.90;99.90;;;;;;5062693;28;20414;-81
2022/09/24 04:45:28;;;;;;;6.57;5.87;;;11.10;99.90;;;;;;5061275;28;20439;-81
2022/09/24 04:48:13;;;;;;;6.90;6.30;;;10.80;99.90;;;;;;5060067;28;20779;-81
2022/09/24 04:50:57;;;;;;;8.40;6.70;;;10.90;99.90;;;;;;5060149;28;20404;-80
2022/09/24 04:53:42;;;;;;;8.43;7.60;;;11.00;99.90;;;;;;5059833;28;20398;-80
2022/09/24 04:56:26;;;;;;;7.47;6.63;;;11.10;99.90;;;;;;5061595;28;20445;-81
2022/09/24 04:59:11;;;;;;;7.70;6.90;;;11.20;99.90;;;;;;5061280;28;20414;-81
2022/09/24 05:01:56;;;;;;;7.43;6.60;;;11.10;99.90;;;;;;5060218;28;20883;-81
2022/09/24 05:04:42;;;;;;;7.57;6.80;;;11.10;99.90;;;;;;5060357;28;20424;-80
2022/09/24 05:07:26;;;;;;;6.23;5.63;;;11.10;99.90;;;;;;5061213;28;20441;-80
2022/09/24 05:10:11;;;;;;;8.27;6.63;;;11.20;99.90;;;;;;5060434;28;20487;-80
2022/09/24 05:12:55;;;;;;;6.33;5.70;;;11.20;99.90;;;;;;5045119;28;20421;-81
2022/09/24 05:15:40;;;;;;;6.70;6.10;;;11.30;99.90;;;;;;5061361;28;20439;-79
2022/09/24 05:18:25;;;;;;;6.70;5.80;;;11.40;99.90;;;;;;5061430;28;20957;-80
2022/09/24 05:21:10;;;;;;;6.33;5.70;;;11.40;99.90;;;;;;5054670;28;20445;-80
2022/09/24 05:23:54;;;;;;;6.70;5.77;;;11.40;99.90;;;;;;5060700;28;20776;-80
2022/09/24 05:29:43;;;;;;;9.17;6.20;;;11.40;99.90;;;;;;5058873;28;20443;-81
2022/09/24 05:32:28;;;;;;;6.93;6.17;;;11.50;99.90;;;;;;5060646;28;20422;-80
2022/09/24 05:35:12;;;;;;;7.60;6.67;;;11.50;99.90;;;;;;5061613;28;20385;-79
2022/09/24 05:37:57;;;;;;;7.87;7.17;;;11.50;99.90;;;;;;5061305;28;20409;-79
2022/09/24 05:40:49;;;;;;;6.63;6.07;;;11.50;99.90;;;;;;5060617;28;20452;-79
2022/09/24 05:43:33;;;;;;;11.13;6.20;;;11.50;99.90;;;;;;5060406;28;20385;-79
2022/09/24 05:46:19;;;;;;;7.03;6.43;;;11.50;99.90;;;;;;5060794;28;20417;-79
2022/09/24 05:49:04;;;;;;;7.90;6.77;;;11.60;99.90;;;;;;5059855;28;20881;-81
2022/09/24 05:51:49;;;;;;;6.10;5.50;;;11.60;99.90;;;;;;5060290;28;20477;-81
2022/09/24 05:54:34;;;;;;;11.73;6.50;;;11.60;99.90;;;;;;5059503;28;20392;-80
2022/09/24 05:57:18;;;;;;;7.67;6.17;;;11.60;99.90;;;;;;5060657;28;20969;-81
2022/09/24 06:00:05;;;;;;;6.90;6.20;;;11.70;99.90;;;;;;5060272;28;20397;-80
2022/09/24 06:02:50;;;;;;;7.47;6.47;;;11.60;99.90;;;;;;5060551;28;20453;-80
2022/09/24 06:05:34;;;;;;;6.57;5.97;;;11.60;99.90;;;;;;5060801;28;20784;-81
2022/09/24 06:08:20;;;;;;;7.53;6.37;;;11.60;99.90;;;;;;5059655;28;20385;-79
2022/09/24 06:11:07;;;;;;;8.63;6.20;;;11.60;99.90;;;;;;5059605;28;20395;-80
2022/09/24 06:13:51;;;;;;;7.60;6.13;;;11.70;99.90;;;;;;5059051;28;20473;-80
2022/09/24 06:16:36;;;;;;;8.33;6.87;;;11.70;99.90;;;;;;5060421;28;20751;-80
2022/09/24 06:19:20;;;;;;;8.77;6.83;;;11.70;99.90;;;;;;5059394;28;20836;-79
2022/09/24 06:22:05;;;;;;;7.67;5.90;;;11.80;99.90;;;;;;5024012;28;20535;-80
2022/09/24 06:24:50;;;;;;;7.27;5.73;;;11.70;99.90;;;;;;5024289;28;20429;-79
2022/09/24 06:27:34;;;;;;;6.87;6.20;;;11.60;99.90;;;;;;5038681;28;20445;-79
2022/09/24 06:30:19;;;;;;;8.33;6.00;;;11.60;99.90;;;;;;5038106;28;20391;-80
2022/09/24 06:33:07;;;;;;;8.27;6.60;;;11.60;99.90;;;;;;5024173;28;20390;-80
2022/09/24 06:35:51;;;;;;;6.30;5.70;;;11.60;99.90;;;;;;5023839;28;20994;-79
2022/09/24 06:38:39;;;;;;;7.00;5.93;;;11.70;99.90;;;;;;5037852;28;20455;-79
2022/09/24 06:41:23;;;;;;;11.03;6.80;;;11.80;99.90;;;;;;5038376;28;20470;-79
2022/09/24 06:44:08;;;;;;;6.50;6.00;;;11.90;99.90;;;;;;5023223;28;20387;-80
2022/09/24 06:46:52;;;;;;;5.97;5.40;;;11.90;99.90;;;;;;5023852;28;20414;-79
2022/09/24 06:49:37;;;;;;;7.37;6.77;;;11.90;99.90;;;;;;5023075;28;20410;-80
2022/09/24 06:52:22;;;;;;;10.73;6.10;;;12.00;99.90;;;;;;5044498;28;20402;-79
2022/09/24 06:55:07;;;;;;;13.33;7.33;;;12.00;99.90;;;;;;5058535;28;20432;-81
2022/09/24 06:58:01;;;;;;;7.47;6.77;;;12.10;99.90;;;;;;5059201;28;20444;-81
2022/09/24 07:00:52;;;;;;;8.70;6.77;;;12.10;99.90;;;;;;5060526;28;20446;-80
2022/09/24 07:03:38;;;;;;;7.27;6.57;;;12.20;99.90;;;;;;5059956;28;20478;-81
2022/09/24 07:06:22;;;;;;;9.67;6.97;;;12.40;99.90;;;;;;5057591;28;20448;-81
2022/09/24 07:09:07;;;;;;;7.63;6.93;;;12.40;99.90;;;;;;5064397;28;20385;-81
2022/09/24 07:11:52;;;;;;;6.47;5.90;;;12.60;99.90;;;;;;5079728;28;20443;-81
2022/09/24 07:14:36;;;;;;;6.63;6.03;;;12.60;99.90;;;;;;5065170;28;20408;-80
2022/09/24 07:17:21;;;;;;;10.03;7.13;;;12.70;99.90;;;;;;5064329;28;20396;-81
2022/09/24 07:20:06;;;;;;;9.53;6.90;;;12.60;99.90;;;;;;5079070;28;20893;-81
2022/09/24 07:22:50;;;;;;;7.43;5.97;;;12.80;99.90;;;;;;5063883;28;20393;-81
2022/09/24 07:25:36;;;;;;;9.33;8.13;;;13.00;99.90;;;;;;5038601;28;20428;-81
2022/09/24 07:28:21;;;;;;;9.10;6.30;;;12.90;99.90;;;;;;5053851;28;20446;-81
2022/09/24 07:31:05;;;;;;;7.43;6.73;;;13.00;99.90;;;;;;5083192;28;20984;-81
2022/09/24 07:33:50;;;;;;;9.53;8.63;;;13.00;99.90;;;;;;5082827;28;20381;-81
2022/09/24 07:36:35;;;;;;;7.30;6.40;;;12.90;99.90;;;;;;5083496;28;20749;-81
2022/09/24 07:39:19;;;;;;;7.83;7.20;;;12.80;99.90;;;;;;5053298;28;20377;-80
2022/09/24 07:42:06;;;;;;;5.83;5.33;;;12.90;99.90;;;;;;5069847;28;20448;-80
2022/09/24 07:44:51;;;;;;;8.70;7.00;;;13.00;99.90;;;;;;5084957;28;20690;-80
2022/09/24 07:47:35;;;;;;;6.33;5.73;;;13.10;99.90;;;;;;5084888;28;20385;-79
2022/09/24 07:50:21;;;;;;;11.23;7.03;;;13.10;99.90;;;;;;5055389;28;20396;-79
2022/09/24 07:53:06;;;;;;;8.27;6.23;;;13.20;99.90;;;;;;5072621;28;20492;-78
2022/09/24 07:55:51;;;;;;;6.90;6.20;;;12.90;99.90;;;;;;5067908;28;20764;-80
2022/09/24 07:58:35;;;;;;;8.07;6.80;;;13.20;99.90;;;;;;5067541;28;20473;-81
2022/09/24 08:01:20;;;;;;;9.57;7.73;;;13.40;99.90;;;;;;5068847;28;20472;-82
2022/09/24 08:04:06;;;;;;;8.03;7.23;;;13.30;99.90;;;;;;5087269;28;20388;-80
2022/09/24 08:06:50;;;;;;;7.10;6.50;;;13.50;99.90;;;;;;5087006;28;20440;-82
2022/09/24 08:09:35;;;;;;;8.57;7.77;;;13.80;99.90;;;;;;5086776;28;20401;-81
2022/09/24 08:12:19;;;;;;;9.10;8.07;;;13.80;99.90;;;;;;5070862;28;20392;-81
2022/09/24 08:15:04;;;;;;;7.40;6.30;;;13.70;99.90;;;;;;5089419;28;20408;-81
2022/09/24 08:17:49;;;;;;;6.93;6.27;;;13.50;99.90;;;;;;5087329;28;20968;-82
2022/09/24 08:20:36;;;;;;;8.10;7.20;;;13.60;99.90;;;;;;5087398;28;20427;-82
2022/09/24 08:23:21;;;;;;;10.50;7.90;;;13.90;99.90;;;;;;5087527;28;20393;-82
2022/09/24 08:26:07;;;;;;;8.20;7.40;;;14.00;99.90;;;;;;5087393;28;20469;-81
2022/09/24 08:28:51;;;;;;;9.60;7.40;;;14.10;99.90;;;;;;5088556;28;20404;-81
2022/09/24 08:31:36;;;;;;;11.07;7.80;;;14.40;99.90;;;;;;5057805;28;20400;-81
2022/09/24 08:34:22;;;;;;;9.60;8.00;;;14.40;99.90;;;;;;5070456;28;20542;-82
2022/09/24 08:37:08;;;;;;;7.97;7.17;;;14.60;99.90;;;;;;5069288;28;20439;-81
2022/09/24 08:39:52;;;;;;;10.43;7.43;;;14.80;99.90;;;;;;5085592;28;20512;-82
2022/09/24 08:42:48;;;;;;;7.27;6.17;;;14.80;99.90;;;;;;5086110;28;20522;-82
2022/09/24 08:48:46;;;;;;;7.93;7.13;;;15.40;99.90;;;;;;5033021;28;20457;-82
2022/09/24 08:51:40;;;;;;;9.20;6.03;;;15.90;99.90;;;;;;5042925;28;20391;-82
2022/09/24 08:54:28;;;;;;;8.80;6.87;;;16.30;99.90;;;;;;5030509;28;20525;-80
2022/09/24 08:57:16;;;;;;;6.07;5.50;;;16.10;99.90;;;;;;5043328;28;20430;-80
2022/09/24 09:00:01;;;;;;;6.70;6.10;;;16.10;99.90;;;;;;5030941;28;20407;-83
2022/09/24 09:02:56;;;;;;;8.33;7.47;;;16.40;99.90;;;;;;5028937;28;20450;-81
2022/09/24 09:06:02;;;;;;;10.20;6.43;;;16.80;99.90;;;;;;5043119;28;20439;-84
2022/09/24 09:09:08;;;;;;;8.33;6.57;;;17.00;99.90;;;;;;5042992;28;20517;-82
2022/09/24 09:11:59;;;;;;;7.60;6.80;;;17.10;99.90;;;;;;5043528;28;20430;-83
2022/09/24 09:15:03;;;;;;;8.10;6.70;;;16.80;99.90;;;;;;5044069;28;20541;-82
2022/09/24 09:17:59;;;;;;;9.97;7.00;;;17.80;99.90;;;;;;5044109;28;20807;-82
2022/09/24 09:20:47;;;;;;;8.07;7.27;;;18.50;99.90;;;;;;5044330;28;20531;-83
2022/09/24 09:23:45;;;;;;;6.97;6.27;;;19.00;99.90;;;;;;5029748;28;20486;-83
2022/09/24 09:26:30;;;;;;;7.93;6.43;;;19.10;99.90;;;;;;5065148;28;20762;-82
2022/09/24 09:29:15;;;;;;;8.43;7.37;;;19.10;99.90;;;;;;5084722;28;20393;-82
2022/09/24 09:32:15;;;;;;;8.47;7.53;;;19.40;99.90;;;;;;5085149;28;20393;-82
2022/09/24 09:35:18;;;;;;;10.53;7.57;;;20.20;99.90;;;;;;5085782;28;20389;-80
2022/09/24 09:38:22;;;;;;;7.27;6.57;;;20.50;99.90;;;;;;5071973;28;20401;-82
2022/09/24 09:41:24;;;;;;;8.50;6.60;;;19.80;99.90;;;;;;5087136;28;20517;-83
2022/09/24 09:44:14;;;;;;;6.70;6.10;;;18.50;99.90;;;;;;5071458;28;20388;-81
2022/09/24 09:47:08;;;;;;;8.90;6.77;;;18.50;99.90;;;;;;5069791;28;20385;-83
2022/09/24 09:49:57;;;;;;;7.00;6.30;;;18.10;99.90;;;;;;5085494;28;20440;-82
2022/09/24 09:52:41;;;;;;;8.43;6.80;;;18.10;99.90;;;;;;5086942;28;20758;-81
2022/09/24 09:55:30;;;;;;;7.10;6.47;;;18.80;99.90;;;;;;5086487;28;20736;-82
2022/09/24 09:58:21;;;;;;;8.30;6.33;;;18.80;99.90;;;;;;5092197;28;20449;-83
2022/09/24 10:01:09;;;;;;;11.17;5.40;;;19.90;99.90;;;;;;5087493;28;20643;-83
2022/09/24 10:03:55;;;;;;;6.70;6.10;;;20.70;99.90;;;;;;5087084;28;20421;-83
2022/09/24 10:06:39;;;;;;;6.30;5.80;;;21.20;99.90;;;;;;5086202;28;20527;-83
2022/09/24 10:09:24;;;;;;;6.73;6.20;;;20.40;99.90;;;;;;5087695;28;20442;-82
2022/09/24 10:12:16;;;;;;;6.47;5.97;;;20.60;99.90;;;;;;5086802;28;20436;-83
2022/09/24 10:15:05;;;;;;;5.70;5.20;;;21.10;99.90;;;;;;5086455;28;20393;-84
2022/09/24 10:17:52;;;;;;;7.33;6.63;;;21.50;99.90;;;;;;5085612;28;20465;-82
2022/09/24 10:20:37;;;;;;;8.50;6.50;;;20.70;99.90;;;;;;5085885;28;20384;-82
2022/09/24 10:23:31;;;;;;;5.97;5.47;;;20.00;99.90;;;;;;5086491;28;20496;-84
2022/09/24 10:26:16;;;;;;;7.90;6.63;;;19.80;99.90;;;;;;5070841;28;20381;-82
2022/09/24 10:32:05;;;;;;;6.10;5.40;;;20.00;99.90;;;;;;5072297;28;20460;-80
2022/09/24 10:35:28;;;;;;;13.40;5.60;;;19.90;99.90;;;;;;5085881;28;20404;-82
2022/09/24 10:38:19;;;;;;;9.43;7.00;;;20.20;99.90;;;;;;5086201;28;20451;-82
2022/09/24 10:41:27;;;;;;;6.87;6.27;;;19.80;99.90;;;;;;5056085;28;20448;-82
2022/09/24 10:44:12;;;;;;;6.30;5.30;;;19.30;99.90;;;;;;5086333;28;20454;-82
2022/09/24 10:47:19;;;;;;;5.67;5.13;;;19.30;99.90;;;;;;5084678;28;20396;-83
2022/09/24 10:50:24;;;;;;;6.90;6.30;;;19.60;99.90;;;;;;5085111;28;20385;-82
2022/09/24 10:53:21;;;;;;;13.50;5.77;;;19.50;99.90;;;;;;5086188;28;20401;-81
2022/09/24 10:56:30;;;;;;;6.50;5.90;;;19.50;99.90;;;;;;5085604;28;20448;-81
2022/09/24 10:59:44;;;;;;;5.80;5.10;;;19.30;99.90;;;;;;5086223;28;20420;-83
2022/09/24 11:02:50;;;;;;;12.30;8.50;;;19.10;99.90;;;;;;5088752;28;20521;-82
2022/09/24 11:05:51;;;;;;;6.33;5.73;;;18.50;99.90;;;;;;5075133;28;20377;-83
2022/09/24 11:09:10;;;;;;;7.03;5.60;;;18.60;99.90;;;;;;5089532;28;20488;-82
2022/09/24 11:12:19;;;;;;;6.83;6.13;;;18.70;99.90;;;;;;5089573;28;20469;-83
2022/09/24 11:15:30;;;;;;;6.90;6.30;;;18.50;99.90;;;;;;5089884;28;20388;-81
2022/09/24 11:18:45;;;;;;;8.10;4.90;;;19.00;99.90;;;;;;5089802;28;20444;-83
2022/09/24 11:22:00;;;;;;;5.03;4.53;;;18.80;99.90;;;;;;5087758;28;20536;-79
2022/09/24 11:25:05;;;;;;;6.27;5.37;;;18.90;99.90;;;;;;5070445;28;20546;-81
2022/09/24 11:28:07;;;;;;;5.70;5.20;;;19.30;99.90;;;;;;5083525;28;20385;-82
2022/09/24 11:31:17;;;;;;;9.53;7.10;;;19.20;99.90;;;;;;5068671;28;20396;-82
2022/09/24 11:34:41;;;;;;;7.00;5.50;;;19.10;99.90;;;;;;5084767;28;20719;-81
2022/09/24 11:37:58;;;;;;;4.90;4.40;;;18.90;99.90;;;;;;5084758;28;20849;-81
2022/09/24 11:41:01;;;;;;;5.07;4.63;;;18.80;99.90;;;;;;5084951;28;20831;-81
2022/09/24 11:44:10;;;;;;;5.37;4.87;;;19.30;99.90;;;;;;5071478;28;20415;-79
2022/09/24 11:47:10;;;;;;;5.33;4.83;;;19.50;99.90;;;;;;5069616;28;20389;-81
2022/09/24 11:50:21;;;;;;;6.43;4.87;;;19.70;99.90;;;;;;5036644;28;20479;-82
2022/09/24 11:53:13;;;;;;;5.73;5.27;;;19.70;99.90;;;;;;5071050;28;20377;-81
2022/09/24 11:56:04;;;;;;;6.70;6.03;;;19.60;99.90;;;;;;5068950;28;20385;-81
2022/09/24 11:58:57;;;;;;;5.97;4.53;;;19.80;99.90;;;;;;5068775;28;20408;-80
2022/09/24 12:01:54;;;;;;;10.50;9.73;;;19.70;99.90;;;;;;5055813;28;20864;-81
2022/09/24 12:04:51;;;;;;;5.07;4.67;;;19.60;99.90;;;;;;5057178;28;20381;-79
2022/09/24 12:07:44;;;;;;;4.87;4.30;;;19.30;99.90;;;;;;5044843;28;20406;-81
2022/09/24 12:10:45;;;;;;;4.87;4.53;;;19.10;99.90;;;;;;5044279;28;20460;-81
2022/09/24 12:13:40;;;;;;;5.53;5.00;;;19.40;99.90;;;;;;5045203;28;20399;-81
2022/09/24 12:16:28;;;;;;;5.23;4.73;;;18.90;99.90;;;;;;5045146;28;20442;-82
2022/09/24 12:19:22;;;;;;;7.97;5.33;;;19.10;99.90;;;;;;5045540;28;20450;-81
2022/09/24 12:22:09;;;;;;;7.13;6.43;;;18.80;99.90;;;;;;5046329;28;20490;-82
2022/09/24 12:24:58;;;;;;;4.37;3.97;;;19.20;99.90;;;;;;5044742;28;20559;-80
2022/09/24 12:27:44;;;;;;;5.93;4.97;;;19.60;99.90;;;;;;5044377;28;20484;-82
2022/09/24 12:33:54;;;;;;;5.30;4.90;;;20.10;99.90;;;;;;5044831;28;20445;-81
2022/09/24 12:37:04;;;;;;;6.20;5.03;;;20.30;99.90;;;;;;5046259;28;20400;-82
2022/09/24 12:40:21;;;;;;;8.30;4.30;;;20.10;99.90;;;;;;5071499;28;20426;-80
2022/09/24 12:43:24;;;;;;;8.13;5.07;;;19.30;99.90;;;;;;5067649;28;20502;-82
2022/09/24 12:46:31;;;;;;;4.77;4.37;;;19.50;99.90;;;;;;5051664;28;20397;-83
2022/09/24 12:49:29;;;;;;;4.60;4.30;;;19.40;99.90;;;;;;5066202;28;20531;-82
2022/09/24 12:52:26;;;;;;;4.60;4.20;;;19.60;99.90;;;;;;5063036;28;20418;-82
2022/09/24 12:55:24;;;;;;;4.97;4.40;;;20.50;99.90;;;;;;5066550;28;20466;-82
2022/09/24 12:58:29;;;;;;;4.60;4.20;;;20.80;99.90;;;;;;5064959;28;20460;-82
2022/09/24 13:01:34;;;;;;;4.60;4.20;;;22.00;99.90;;;;;;5062187;28;20538;-83
2022/09/24 13:04:27;;;;;;;4.53;4.23;;;22.50;99.90;;;;;;5061598;28;20390;-83
2022/09/24 13:07:33;;;;;;;7.53;4.10;;;23.90;99.80;;;;;;5062710;28;20511;-80
2022/09/24 13:10:25;;;;;;;4.10;3.80;;;24.60;95.50;;;;;;5064404;28;20397;-83
2022/09/24 13:13:24;;;;;;;4.60;4.20;;;25.60;92.50;;;;;;5062358;28;20878;-81
2022/09/24 13:16:18;;;;;;;9.57;4.90;;;26.20;85.70;;;;;;5064386;28;20448;-80
2022/09/24 13:19:04;;;;;;;6.57;4.60;;;24.00;89.60;;;;;;5063185;28;20421;-82
2022/09/24 13:21:55;;;;;;;4.73;3.67;;;22.90;91.60;;;;;;5063291;28;20507;-82
2022/09/24 13:24:48;;;;;;;5.63;4.43;;;22.10;93.50;;;;;;5064283;28;20847;-81
2022/09/24 13:27:37;;;;;;;4.60;4.20;;;22.30;94.50;;;;;;5061778;28;20408;-81
2022/09/24 13:30:34;;;;;;;4.80;4.40;;;20.60;95.90;;;;;;5063530;28;20390;-80
2022/09/24 13:33:26;;;;;;;5.00;4.50;;;20.50;98.20;;;;;;5066537;28;20393;-81
2022/09/24 13:36:16;;;;;;;4.87;4.10;;;20.80;98.70;;;;;;5067182;28;20390;-79
2022/09/24 13:39:25;;;;;;;5.17;4.77;;;21.60;98.20;;;;;;5066183;28;20521;-79
2022/09/24 13:42:44;;;;;;;7.40;4.77;;;21.80;96.70;;;;;;5059808;28;20463;-79
2022/09/24 13:45:31;;;;;;;4.07;3.77;;;21.80;96.20;;;;;;5058985;28;20896;-80
2022/09/24 13:48:35;;;;;;;6.23;5.20;;;20.30;99.30;;;;;;5060752;28;20429;-81
2022/09/24 13:51:26;;;;;;;6.83;6.03;;;20.50;99.90;;;;;;5058996;28;20394;-82
2022/09/24 13:54:22;;;;;;;4.47;4.10;;;20.50;99.90;;;;;;5052916;28;20524;-81
2022/09/24 13:57:12;;;;;;;5.40;4.70;;;20.00;99.90;;;;;;5058878;28;20433;-81
2022/09/24 14:00:15;;;;;;;5.60;4.20;;;20.10;99.90;;;;;;5059394;28;20429;-80
2022/09/24 14:03:03;;;;;;;5.53;4.80;;;20.60;99.90;;;;;;5057155;28;20507;-80
2022/09/24 14:05:50;;;;;;;5.90;5.40;;;20.70;99.90;;;;;;5059257;28;20393;-81
2022/09/24 14:08:39;;;;;;;4.90;4.53;;;21.10;99.90;;;;;;5059543;28;20516;-81
2022/09/24 14:11:24;;;;;;;5.93;4.20;;;20.80;99.90;;;;;;5058252;28;20398;-82
2022/09/24 14:14:14;;;;;;;4.43;4.13;;;21.30;99.90;;;;;;5033165;28;20386;-81
2022/09/24 14:17:08;;;;;;;4.30;3.87;;;21.40;99.90;;;;;;5056559;28;20386;-82
2022/09/24 14:19:56;;;;;;;5.67;5.10;;;22.20;98.20;;;;;;5060111;28;20378;-82
2022/09/24 14:22:44;;;;;;;8.67;4.70;;;21.20;99.90;;;;;;5058790;28;20585;-79
2022/09/24 14:25:31;;;;;;;5.40;4.50;;;20.50;99.90;;;;;;5060764;28;20394;-82
2022/09/24 14:28:16;;;;;;;4.40;4.10;;;20.70;99.90;;;;;;5055750;28;20386;-81
2022/09/24 14:31:01;;;;;;;5.27;4.77;;;20.20;99.90;;;;;;5056872;28;20414;-82
2022/09/24 14:33:45;;;;;;;5.93;5.43;;;20.20;99.90;;;;;;5058314;28;20894;-82
2022/09/24 14:36:34;;;;;;;4.60;4.20;;;20.20;99.90;;;;;;5057568;28;20433;-83
2022/09/24 14:39:22;;;;;;;5.60;5.10;;;20.00;99.90;;;;;;5059040;28;20569;-81
2022/09/24 14:42:12;;;;;;;5.17;4.73;;;19.80;99.90;;;;;;5057874;28;20468;-82
2022/09/24 14:45:19;;;;;;;5.80;5.23;;;20.00;99.90;;;;;;5058755;28;20691;-81
2022/09/24 14:48:18;;;;;;;4.97;4.57;;;20.50;99.90;;;;;;4990200;28;20418;-81
2022/09/24 14:51:03;;;;;;;5.47;4.90;;;20.20;99.90;;;;;;5001809;28;20443;-79
2022/09/24 14:53:57;;;;;;;6.33;5.73;;;19.90;99.90;;;;;;5015657;28;20395;-82
2022/09/24 14:56:42;;;;;;;5.23;4.83;;;19.80;99.90;;;;;;5013833;28;20531;-79
2022/09/24 14:59:29;;;;;;;5.30;4.83;;;19.70;99.90;;;;;;5000969;28;20890;-82
2022/09/24 15:02:20;;;;;;;5.10;4.60;;;19.40;99.90;;;;;;5013817;28;20467;-82